createdAt,value
2024-03-26T00:01:41.214Z,0.58
2024-03-26T00:04:09.400Z,0.58
2024-03-26T00:06:37.339Z,0.57
2024-03-26T00:09:05.447Z,0.55
2024-03-26T00:11:33.397Z,0.54
2024-03-26T00:14:01.368Z,0.52
2024-03-26T00:16:29.462Z,0.49
2024-03-26T00:18:57.398Z,0.49
2024-03-26T00:21:25.266Z,0.48
2024-03-26T00:23:53.262Z,0.49
2024-03-26T00:26:21.503Z,0.49
2024-03-26T00:28:49.363Z,0.48
2024-03-26T00:31:17.446Z,0.45
2024-03-26T00:33:45.589Z,0.42
2024-03-26T00:36:13.585Z,0.41
2024-03-26T00:38:41.571Z,0.41
2024-03-26T00:41:09.518Z,0.41
2024-03-26T00:43:37.591Z,0.41
2024-03-26T00:46:05.566Z,0.38
2024-03-26T00:48:33.633Z,0.35
2024-03-26T00:51:01.707Z,0.31
2024-03-26T00:53:29.677Z,0.27
2024-03-26T00:55:57.749Z,0.21
2024-03-26T00:58:25.750Z,0.15
2024-03-26T01:00:54.611Z,0.11
2024-03-26T01:03:22.471Z,0.07
2024-03-26T01:05:59.959Z,0.03
2024-03-26T01:08:28.053Z,-0.00
2024-03-26T01:10:56.551Z,-0.04
2024-03-26T01:13:24.783Z,-0.08
2024-03-26T01:15:53.281Z,-0.11
2024-03-26T01:18:21.131Z,-0.13
2024-03-26T01:20:49.200Z,-0.14
2024-03-26T01:23:17.284Z,-0.16
2024-03-26T01:25:45.145Z,-0.18
2024-03-26T01:28:13.170Z,-0.20
2024-03-26T01:30:41.282Z,-0.22
2024-03-26T01:33:09.151Z,-0.25
2024-03-26T01:35:38.174Z,-0.28
2024-03-26T01:38:06.105Z,-0.28
2024-03-26T01:40:34.075Z,-0.28
2024-03-26T01:43:02.073Z,-0.30
2024-03-26T01:45:31.240Z,-0.31
2024-03-26T01:47:59.312Z,-0.32
2024-03-26T01:50:28.340Z,-0.36
2024-03-26T01:52:56.894Z,-0.37
2024-03-26T01:55:26.405Z,-0.41
2024-03-26T01:57:54.592Z,-0.44
2024-03-26T02:00:25.778Z,-0.46
2024-03-26T02:02:54.195Z,-0.48
2024-03-26T02:05:22.696Z,-0.51
2024-03-26T02:07:51.162Z,-0.54
2024-03-26T02:10:20.454Z,-0.54
2024-03-26T02:12:48.440Z,-0.54
2024-03-26T02:15:16.388Z,-0.54
2024-03-26T02:17:44.358Z,-0.55
2024-03-26T02:20:13.766Z,-0.54
2024-03-26T02:22:41.837Z,-0.54
2024-03-26T02:25:09.837Z,-0.54
2024-03-26T02:27:37.666Z,-0.55
2024-03-26T02:30:06.563Z,-0.58
2024-03-26T02:32:34.563Z,-0.60
2024-03-26T02:35:02.492Z,-0.62
2024-03-26T02:37:30.465Z,-0.63
2024-03-26T02:39:58.357Z,-0.63
2024-03-26T02:42:26.305Z,-0.65
2024-03-26T02:44:54.267Z,-0.65
2024-03-26T02:47:22.662Z,-0.66
2024-03-26T02:49:50.724Z,-0.67
2024-03-26T02:52:18.838Z,-0.69
2024-03-26T02:54:46.862Z,-0.72
2024-03-26T02:57:14.809Z,-0.74
2024-03-26T02:59:42.830Z,-0.78
2024-03-26T03:02:11.073Z,-0.80
2024-03-26T03:04:39.048Z,-0.81
2024-03-26T03:07:07.037Z,-0.85
2024-03-26T03:09:35.184Z,-0.86
2024-03-26T03:12:03.150Z,-0.88
2024-03-26T03:14:31.338Z,-0.91
2024-03-26T03:16:59.234Z,-0.93
2024-03-26T03:19:27.366Z,-0.95
2024-03-26T03:21:55.441Z,-0.96
2024-03-26T03:24:23.518Z,-0.97
2024-03-26T03:26:51.481Z,-0.98
2024-03-26T03:29:19.347Z,-1.00
2024-03-26T03:31:47.511Z,-1.00
2024-03-26T03:34:15.393Z,-1.00
2024-03-26T03:36:43.349Z,-1.01
2024-03-26T03:39:11.214Z,-1.01
2024-03-26T03:41:39.280Z,-1.02
2024-03-26T03:44:07.260Z,-1.01
2024-03-26T03:46:35.223Z,-1.01
2024-03-26T03:49:03.513Z,-1.00
2024-03-26T03:51:31.595Z,-1.02
2024-03-26T03:53:59.654Z,-1.02
2024-03-26T03:56:27.819Z,-1.03
2024-03-26T03:58:55.896Z,-1.04
2024-03-26T04:01:23.752Z,-1.05
2024-03-26T04:03:51.618Z,-1.05
2024-03-26T04:06:19.697Z,-1.05
2024-03-26T04:08:47.664Z,-1.03
2024-03-26T04:11:15.771Z,-1.00
2024-03-26T04:13:43.650Z,-0.95
2024-03-26T04:16:11.986Z,-0.92
2024-03-26T04:18:39.943Z,-0.87
2024-03-26T04:21:10.367Z,-0.82
2024-03-26T04:23:38.649Z,-0.78
2024-03-26T04:26:06.828Z,-0.73
2024-03-26T04:28:34.801Z,-0.68
2024-03-26T04:31:03.571Z,-0.61
2024-03-26T04:33:32.093Z,-0.55
2024-03-26T04:36:00.037Z,-0.52
2024-03-26T04:38:27.994Z,-0.47
2024-03-26T04:40:55.959Z,-0.41
2024-03-26T04:43:23.826Z,-0.35
2024-03-26T04:45:53.695Z,-0.29
2024-03-26T04:48:21.919Z,-0.24
2024-03-26T04:50:50.008Z,-0.20
2024-03-26T04:53:17.907Z,-0.13
2024-03-26T04:55:47.078Z,-0.07
2024-03-26T04:58:14.919Z,-0.02
2024-03-26T05:00:42.782Z,0.04
2024-03-26T05:03:10.966Z,0.11
2024-03-26T05:05:39.047Z,0.18
2024-03-26T05:08:07.026Z,0.23
2024-03-26T05:10:35.573Z,0.31
2024-03-26T05:13:03.646Z,0.39
2024-03-26T05:15:34.838Z,0.48
2024-03-26T05:18:02.888Z,0.57
2024-03-26T05:20:30.831Z,0.64
2024-03-26T05:22:58.916Z,0.73
2024-03-26T05:25:26.874Z,0.82
2024-03-26T05:27:54.941Z,0.91
2024-03-26T05:30:22.915Z,0.96
2024-03-26T05:32:52.275Z,1.07
2024-03-26T05:35:20.409Z,1.19
2024-03-26T05:37:48.759Z,1.26
2024-03-26T05:40:17.489Z,1.31
2024-03-26T05:42:45.535Z,1.34
2024-03-26T05:45:13.498Z,1.45
2024-03-26T05:47:41.705Z,1.55
2024-03-26T05:50:10.055Z,1.63
2024-03-26T05:52:38.108Z,1.73
2024-03-26T05:55:06.794Z,1.83
2024-03-26T05:57:34.795Z,1.90
2024-03-26T06:00:02.934Z,2.00
2024-03-26T06:02:32.368Z,2.15
2024-03-26T06:05:00.544Z,2.29
2024-03-26T06:07:28.582Z,2.38
2024-03-26T06:09:56.614Z,2.43
2024-03-26T06:12:25.360Z,2.52
2024-03-26T06:14:53.336Z,2.55
2024-03-26T06:17:21.293Z,2.66
2024-03-26T06:19:50.693Z,2.73
2024-03-26T06:22:18.753Z,2.76
2024-03-26T06:24:46.720Z,2.82
2024-03-26T06:27:14.694Z,2.87
2024-03-26T06:29:42.865Z,2.90
2024-03-26T06:32:10.860Z,2.97
2024-03-26T06:34:40.041Z,3.05
2024-03-26T06:37:09.128Z,3.18
2024-03-26T06:39:37.012Z,3.22
2024-03-26T06:42:05.063Z,3.30
2024-03-26T06:44:33.341Z,3.33
2024-03-26T06:47:01.419Z,3.40
2024-03-26T06:49:29.279Z,3.51
2024-03-26T06:51:57.186Z,3.63
2024-03-26T06:54:25.324Z,3.75
2024-03-26T06:56:53.180Z,3.91
2024-03-26T06:59:21.389Z,4.03
2024-03-26T07:01:49.230Z,4.18
2024-03-26T07:04:17.199Z,4.29
2024-03-26T07:06:46.419Z,4.28
2024-03-26T07:09:14.356Z,4.26
2024-03-26T07:11:43.146Z,4.36
2024-03-26T07:14:14.094Z,4.56
2024-03-26T07:16:41.960Z,4.72
2024-03-26T07:19:09.999Z,4.86
2024-03-26T07:21:39.936Z,5.03
2024-03-26T07:31:47.174Z,5.62
2024-03-26T07:34:16.881Z,5.71
2024-03-26T07:36:44.768Z,5.74
2024-03-26T07:39:16.719Z,5.84
2024-03-26T07:41:46.156Z,5.87
2024-03-26T07:44:15.308Z,5.93
2024-03-26T07:46:45.430Z,5.99
2024-03-26T07:49:13.582Z,6.12
2024-03-26T07:51:41.767Z,6.27
2024-03-26T07:54:10.770Z,6.43
2024-03-26T07:56:38.947Z,6.56
2024-03-26T07:59:06.822Z,6.67
2024-03-26T08:01:35.298Z,6.83
2024-03-26T08:04:03.673Z,6.92
2024-03-26T08:06:31.803Z,7.03
2024-03-26T08:09:00.037Z,7.04
2024-03-26T08:11:28.388Z,7.07
2024-03-26T08:13:56.503Z,7.12
2024-03-26T08:16:24.444Z,7.16
2024-03-26T08:18:52.606Z,7.33
2024-03-26T08:21:20.563Z,7.53
2024-03-26T08:23:49.192Z,7.66
2024-03-26T08:26:17.127Z,7.84
2024-03-26T08:28:45.114Z,7.91
2024-03-26T08:31:13.168Z,8.00
2024-03-26T08:33:41.231Z,8.07
2024-03-26T08:36:09.424Z,8.20
2024-03-26T08:38:37.380Z,8.25
2024-03-26T08:41:05.482Z,8.24
2024-03-26T08:43:33.624Z,8.33
2024-03-26T08:46:01.793Z,8.43
2024-03-26T08:48:29.788Z,8.50
2024-03-26T08:50:57.775Z,8.52
2024-03-26T08:53:26.216Z,8.48
2024-03-26T08:55:54.480Z,8.68
2024-03-26T08:58:24.815Z,8.87
2024-03-26T09:00:52.833Z,8.93
2024-03-26T09:03:20.765Z,8.93
2024-03-26T09:05:49.233Z,8.89
2024-03-26T09:08:17.141Z,8.83
2024-03-26T09:10:47.131Z,8.61
2024-03-26T09:13:14.884Z,8.55
2024-03-26T09:15:42.739Z,8.51
2024-03-26T09:18:10.652Z,8.44
2024-03-26T09:20:38.586Z,8.27
2024-03-26T09:23:06.472Z,8.15
2024-03-26T09:25:34.618Z,8.08
2024-03-26T09:28:02.616Z,8.04
2024-03-26T09:30:31.194Z,8.01
2024-03-26T09:32:59.331Z,8.00
2024-03-26T09:35:27.535Z,8.02
2024-03-26T09:37:55.394Z,7.97
2024-03-26T09:40:23.403Z,7.90
2024-03-26T09:42:53.070Z,7.93
2024-03-26T09:45:21.774Z,7.90
2024-03-26T09:47:50.683Z,7.88
2024-03-26T09:50:20.460Z,7.93
2024-03-26T09:52:50.267Z,7.97
2024-03-26T09:55:19.963Z,8.05
2024-03-26T09:57:48.157Z,8.12
2024-03-26T10:00:17.158Z,8.21
2024-03-26T10:02:47.117Z,8.25
2024-03-26T10:05:19.021Z,8.29
2024-03-26T10:07:48.163Z,8.36
2024-03-26T10:10:17.036Z,8.40
2024-03-26T10:12:45.233Z,8.44
2024-03-26T10:15:13.359Z,8.51
2024-03-26T10:17:41.334Z,8.58
2024-03-26T10:20:10.237Z,8.63
2024-03-26T10:22:38.787Z,8.70
2024-03-26T10:25:07.738Z,8.79
2024-03-26T10:27:35.695Z,8.87
2024-03-26T10:30:09.276Z,8.92
2024-03-26T10:32:38.173Z,8.97
2024-03-26T10:35:09.724Z,9.03
2024-03-26T10:37:38.585Z,9.10
2024-03-26T10:40:10.346Z,9.15
2024-03-26T10:42:48.041Z,9.20
2024-03-26T10:45:32.272Z,9.24
2024-03-26T10:48:08.109Z,9.30
2024-03-26T10:50:37.164Z,9.34
2024-03-26T10:53:06.327Z,9.39
2024-03-26T10:55:35.831Z,9.45
2024-03-26T10:58:04.341Z,9.50
2024-03-26T11:00:35.671Z,9.54
2024-03-26T11:03:04.222Z,9.58
2024-03-26T11:05:32.728Z,9.68
2024-03-26T11:08:01.430Z,9.81
2024-03-26T11:10:29.590Z,9.90
2024-03-26T11:12:59.298Z,10.05
2024-03-26T11:15:29.532Z,10.27
2024-03-26T11:18:04.368Z,10.41
2024-03-26T11:20:33.861Z,10.49
2024-03-26T11:23:06.484Z,10.52
2024-03-26T11:25:35.526Z,10.58
2024-03-26T11:28:04.785Z,10.68
2024-03-26T11:30:34.795Z,10.77
2024-03-26T11:33:03.038Z,10.93
2024-03-26T11:35:31.435Z,11.01
2024-03-26T11:38:03.665Z,11.09
2024-03-26T11:40:32.762Z,11.17
2024-03-26T11:43:01.480Z,11.20
2024-03-26T11:45:29.411Z,11.09
2024-03-26T11:47:58.646Z,10.90
2024-03-26T11:50:26.792Z,10.75
2024-03-26T11:52:55.366Z,10.81
2024-03-26T11:55:23.463Z,10.91
2024-03-26T11:57:52.023Z,10.91
2024-03-26T12:00:20.811Z,10.87
2024-03-26T12:02:49.310Z,10.82
2024-03-26T12:05:17.264Z,10.77
2024-03-26T12:07:46.175Z,10.87
2024-03-26T12:10:14.120Z,11.10
2024-03-26T12:12:42.187Z,11.21
2024-03-26T12:15:13.666Z,11.25
2024-03-26T12:17:41.916Z,11.26
2024-03-26T12:20:13.371Z,11.36
2024-03-26T12:22:41.870Z,11.62
2024-03-26T12:25:11.051Z,11.80
2024-03-26T12:27:46.089Z,12.03
2024-03-26T12:30:15.479Z,12.25
2024-03-26T12:32:43.354Z,12.34
2024-03-26T12:35:11.319Z,12.32
2024-03-26T12:37:42.798Z,12.29
2024-03-26T12:40:15.035Z,12.24
2024-03-26T12:42:43.216Z,12.23
2024-03-26T12:45:11.149Z,12.29
2024-03-26T12:47:39.256Z,12.27
2024-03-26T12:50:07.989Z,12.17
2024-03-26T12:52:41.058Z,12.15
2024-03-26T12:55:09.204Z,12.24
2024-03-26T12:57:37.992Z,12.35
2024-03-26T13:00:07.009Z,12.37
2024-03-26T13:02:35.054Z,12.32
2024-03-26T13:05:03.250Z,12.23
2024-03-26T13:07:31.311Z,12.08
2024-03-26T13:09:59.482Z,12.05
2024-03-26T13:12:27.463Z,12.25
2024-03-26T13:14:55.405Z,12.44
2024-03-26T13:17:23.519Z,12.48
2024-03-26T13:19:55.499Z,12.55
2024-03-26T13:22:24.737Z,12.69
2024-03-26T13:24:52.749Z,12.83
2024-03-26T13:27:20.577Z,12.78
2024-03-26T13:29:48.643Z,12.64
2024-03-26T13:32:19.589Z,12.52
2024-03-26T13:34:47.867Z,12.47
2024-03-26T13:37:15.853Z,12.49
2024-03-26T13:39:44.000Z,12.56
2024-03-26T13:42:12.067Z,12.66
2024-03-26T13:44:39.964Z,12.74
2024-03-26T13:47:08.720Z,12.83
2024-03-26T13:49:36.685Z,12.99
2024-03-26T13:52:04.869Z,13.01
2024-03-26T13:54:34.368Z,12.96
2024-03-26T13:57:02.773Z,12.81
2024-03-26T13:59:30.913Z,12.63
2024-03-26T14:01:59.132Z,12.52
2024-03-26T14:04:27.175Z,12.49
2024-03-26T14:06:55.239Z,12.42
2024-03-26T14:09:23.526Z,12.35
2024-03-26T14:11:51.482Z,12.30
2024-03-26T14:14:19.584Z,12.22
2024-03-26T14:16:47.533Z,12.14
2024-03-26T14:19:16.062Z,12.10
2024-03-26T14:21:43.987Z,12.05
2024-03-26T14:24:11.949Z,12.01
2024-03-26T14:26:40.142Z,11.95
2024-03-26T14:29:07.985Z,11.91
2024-03-26T14:31:37.023Z,11.88
2024-03-26T14:34:04.951Z,11.85
2024-03-26T14:36:33.734Z,11.81
2024-03-26T14:39:01.667Z,11.77
2024-03-26T14:41:30.490Z,11.74
2024-03-26T14:44:01.185Z,11.71
2024-03-26T14:46:29.521Z,11.66
2024-03-26T14:48:57.465Z,11.62
2024-03-26T14:51:25.474Z,11.58
2024-03-26T14:53:53.505Z,11.55
2024-03-26T14:56:21.579Z,11.51
2024-03-26T14:58:50.287Z,11.48
2024-03-26T15:01:18.229Z,11.45
2024-03-26T15:03:46.352Z,11.41
2024-03-26T15:06:17.350Z,11.37
2024-03-26T15:08:46.027Z,11.34
2024-03-26T15:11:14.025Z,11.31
2024-03-26T15:13:42.688Z,11.28
2024-03-26T15:16:16.094Z,11.25
2024-03-26T15:18:44.976Z,11.22
2024-03-26T15:21:13.169Z,11.18
2024-03-26T15:23:41.775Z,11.13
2024-03-26T15:26:09.799Z,11.11
2024-03-26T15:28:56.648Z,11.07
2024-03-26T15:31:43.468Z,11.02
2024-03-26T15:34:11.397Z,10.96
2024-03-26T15:36:40.016Z,10.90
2024-03-26T15:39:09.460Z,10.86
2024-03-26T15:41:37.441Z,10.83
2024-03-26T15:44:05.628Z,10.78
2024-03-26T15:46:44.303Z,10.72
2024-03-26T15:49:16.204Z,10.67
2024-03-26T15:51:44.982Z,10.60
2024-03-26T15:54:13.525Z,10.54
2024-03-26T15:56:41.438Z,10.47
2024-03-26T15:59:09.405Z,10.42
2024-03-26T16:01:37.510Z,10.38
2024-03-26T16:04:07.090Z,10.34
2024-03-26T16:06:34.949Z,10.29
2024-03-26T16:09:04.063Z,10.22
2024-03-26T16:11:33.366Z,10.16
2024-03-26T16:14:02.693Z,10.09
2024-03-26T16:16:30.738Z,10.04
2024-03-26T16:18:58.692Z,9.99
2024-03-26T16:21:26.692Z,9.93
2024-03-26T16:23:54.730Z,9.86
2024-03-26T16:26:22.800Z,9.77
2024-03-26T16:28:57.844Z,9.70
2024-03-26T16:31:26.926Z,9.63
2024-03-26T16:33:54.892Z,9.56
2024-03-26T16:36:22.883Z,9.48
2024-03-26T16:38:51.034Z,9.39
2024-03-26T16:41:36.467Z,9.29
2024-03-26T16:44:04.479Z,9.18
2024-03-26T16:46:32.580Z,9.07
2024-03-26T16:49:00.520Z,8.98
2024-03-26T16:51:28.628Z,8.87
2024-03-26T16:53:56.670Z,8.79
2024-03-26T16:56:25.965Z,8.69
2024-03-26T16:58:53.953Z,8.61
2024-03-26T17:01:23.108Z,8.51
2024-03-26T17:03:51.102Z,8.44
2024-03-26T17:06:19.089Z,8.35
2024-03-26T17:08:47.257Z,8.26
2024-03-26T17:11:16.134Z,8.18
2024-03-26T17:13:44.107Z,8.10
2024-03-26T17:16:12.074Z,8.03
2024-03-26T17:18:40.072Z,7.95
2024-03-26T17:21:08.119Z,7.88
2024-03-26T17:23:36.178Z,7.80
2024-03-26T17:26:04.571Z,7.72
2024-03-26T17:28:33.243Z,7.65
2024-03-26T17:31:01.264Z,7.58
2024-03-26T17:33:29.391Z,7.51
2024-03-26T17:35:57.304Z,7.45
2024-03-26T17:38:25.599Z,7.40
2024-03-26T17:40:54.024Z,7.36
2024-03-26T17:43:22.795Z,7.31
2024-03-26T17:45:52.105Z,7.28
2024-03-26T17:48:19.941Z,7.22
2024-03-26T17:50:55.672Z,7.18
2024-03-26T17:53:23.609Z,7.13
2024-03-26T17:55:51.752Z,7.07
2024-03-26T17:58:20.100Z,7.02
2024-03-26T18:00:48.944Z,6.96
2024-03-26T18:03:18.056Z,6.91
2024-03-26T18:05:46.187Z,6.85
2024-03-26T18:08:14.068Z,6.83
2024-03-26T18:10:43.054Z,6.80
2024-03-26T18:13:12.186Z,6.78
2024-03-26T18:15:40.118Z,6.74
2024-03-26T18:18:08.599Z,6.70
2024-03-26T18:20:37.620Z,6.64
2024-03-26T18:23:05.566Z,6.60
2024-03-26T18:25:33.636Z,6.54
2024-03-26T18:28:05.257Z,6.52
2024-03-26T18:30:33.769Z,6.51
2024-03-26T18:33:01.837Z,6.49
2024-03-26T18:35:30.244Z,6.48
2024-03-26T18:37:58.283Z,6.47
2024-03-26T18:40:26.250Z,6.45
2024-03-26T18:42:54.117Z,6.43
2024-03-26T18:45:22.200Z,6.43
2024-03-26T18:47:50.275Z,6.41
2024-03-26T18:50:18.235Z,6.41
2024-03-26T18:52:46.233Z,6.44
2024-03-26T18:55:14.166Z,6.44
2024-03-26T18:57:42.243Z,6.45
2024-03-26T19:00:11.084Z,6.41
2024-03-26T19:02:42.585Z,6.36
2024-03-26T19:05:12.515Z,6.33
2024-03-26T19:07:40.676Z,6.32
2024-03-26T19:10:09.470Z,6.33
2024-03-26T19:12:37.451Z,6.35
2024-03-26T19:15:06.727Z,6.34
2024-03-26T19:17:35.097Z,6.32
2024-03-26T19:20:03.606Z,6.29
2024-03-26T19:22:31.544Z,6.27
2024-03-26T19:24:59.614Z,6.25
2024-03-26T19:27:27.595Z,6.22
2024-03-26T19:29:55.760Z,6.17
2024-03-26T19:32:23.638Z,6.11
2024-03-26T19:34:52.844Z,6.06
2024-03-26T19:37:20.825Z,6.02
2024-03-26T19:39:48.977Z,6.00
2024-03-26T19:42:16.961Z,5.95
2024-03-26T19:44:47.772Z,5.90
2024-03-26T19:47:15.638Z,5.86
2024-03-26T19:49:43.710Z,5.82
2024-03-26T19:52:12.088Z,5.79
2024-03-26T19:54:40.058Z,5.76
2024-03-26T19:57:08.047Z,5.74
2024-03-26T19:59:36.913Z,5.75
2024-03-26T20:02:04.931Z,5.77
2024-03-26T20:04:32.963Z,5.78
2024-03-26T20:07:01.026Z,5.78
2024-03-26T20:09:29.120Z,5.75
2024-03-26T20:11:57.070Z,5.72
2024-03-26T20:14:25.245Z,5.69
2024-03-26T20:16:53.939Z,5.65
2024-03-26T20:19:22.098Z,5.61
2024-03-26T20:21:50.274Z,5.59
2024-03-26T20:24:18.243Z,5.55
2024-03-26T20:26:46.725Z,5.51
2024-03-26T20:29:14.820Z,5.48
2024-03-26T20:31:43.181Z,5.46
2024-03-26T20:34:11.081Z,5.44
2024-03-26T20:36:39.019Z,5.42
2024-03-26T20:39:10.356Z,5.42
2024-03-26T20:41:38.867Z,5.42
2024-03-26T20:44:07.015Z,5.42
2024-03-26T20:46:35.049Z,5.44
2024-03-26T20:49:02.945Z,5.42
2024-03-26T20:51:30.842Z,5.40
2024-03-26T20:53:58.781Z,5.39
2024-03-26T20:56:26.759Z,5.40
2024-03-26T20:58:56.050Z,5.36
2024-03-26T21:01:24.021Z,5.32
2024-03-26T21:03:52.021Z,5.30
2024-03-26T21:06:20.389Z,5.32
2024-03-26T21:08:48.587Z,5.31
2024-03-26T21:11:17.334Z,5.29
2024-03-26T21:13:45.298Z,5.31
2024-03-26T21:16:14.751Z,5.31
2024-03-26T21:18:49.151Z,5.29
2024-03-26T21:21:18.844Z,5.29
2024-03-26T21:23:48.730Z,5.29
2024-03-26T21:26:18.959Z,5.30
2024-03-26T21:28:47.699Z,5.34
2024-03-26T21:31:15.841Z,5.39
2024-03-26T21:33:44.197Z,5.39
2024-03-26T21:36:12.818Z,5.39
2024-03-26T21:38:40.997Z,5.40
2024-03-26T21:41:09.303Z,5.40
2024-03-26T21:43:37.533Z,5.41
2024-03-26T21:46:05.511Z,5.42
2024-03-26T21:48:33.755Z,5.41
2024-03-26T21:51:03.151Z,5.37
2024-03-26T21:53:31.135Z,5.33
2024-03-26T21:56:10.519Z,5.28
2024-03-26T21:58:39.553Z,5.25
2024-03-26T22:01:12.079Z,5.25
2024-03-26T22:03:40.832Z,5.24
2024-03-26T22:06:12.899Z,5.23
2024-03-26T22:08:42.281Z,5.22
2024-03-26T22:11:12.940Z,5.25
2024-03-26T22:13:41.874Z,5.26
2024-03-26T22:16:10.386Z,5.28
2024-03-26T22:18:38.364Z,5.28
2024-03-26T22:21:06.216Z,5.28
2024-03-26T22:23:34.194Z,5.27
2024-03-26T22:26:05.336Z,5.29
2024-03-26T22:28:33.718Z,5.31
2024-03-26T22:31:06.941Z,5.28
2024-03-26T22:33:38.281Z,5.27
2024-03-26T22:36:10.319Z,5.26
2024-03-26T22:38:38.489Z,5.25
2024-03-26T22:41:06.887Z,5.25
2024-03-26T22:43:35.059Z,5.30
2024-03-26T22:46:04.918Z,5.33
2024-03-26T22:48:33.047Z,5.38
2024-03-26T22:51:01.813Z,5.40
2024-03-26T22:53:29.872Z,5.41
2024-03-26T22:56:03.507Z,5.42
2024-03-26T22:58:33.836Z,5.43
2024-03-26T23:01:08.237Z,5.42
2024-03-26T23:03:36.445Z,5.43
2024-03-26T23:06:05.710Z,5.42
2024-03-26T23:08:33.773Z,5.41
2024-03-26T23:11:01.875Z,5.40
2024-03-26T23:13:30.122Z,5.38
2024-03-26T23:16:04.298Z,5.35
2024-03-26T23:18:32.927Z,5.32
2024-03-26T23:21:00.991Z,5.32
2024-03-26T23:23:29.370Z,5.33
2024-03-26T23:25:57.376Z,5.35
2024-03-26T23:28:25.512Z,5.38
2024-03-26T23:30:53.581Z,5.42
2024-03-26T23:33:21.492Z,5.43
2024-03-26T23:35:50.043Z,5.43
2024-03-26T23:38:18.002Z,5.43
2024-03-26T23:40:45.995Z,5.44
2024-03-26T23:43:13.944Z,5.44
2024-03-26T23:45:42.229Z,5.42
2024-03-26T23:48:10.309Z,5.38
2024-03-26T23:50:38.359Z,5.36
2024-03-26T23:53:06.232Z,5.34
2024-03-26T23:55:34.107Z,5.32
2024-03-26T23:58:01.958Z,5.29
